Time;durP1;ratioP1;P1;durP2;ratioP2;P2;SDS_P1;SDS_P2;PMS_P1;PMS_P2;Temp;Humidity;BMP_temperature;BMP_pressure;BME280_temperature;BME280_humidity;BME280_pressure;Samples;Min_cycle;Max_cycle;Signal;HPM_P1;HPM_P2
2024/01/15 00:01:57;;;;;;;10.75;3.78;;;;;;;3.72;82.57;98179.81;4973197;28;20170;-80
2024/01/15 00:04:24;;;;;;;14.23;4.07;;;;;;;3.71;82.20;98178.13;4973463;28;20138;-80
2024/01/15 00:06:50;;;;;;;6.78;2.92;;;;;;;3.69;82.30;98169.56;4973205;28;20572;-80
2024/01/15 00:09:17;;;;;;;7.63;2.38;;;;;;;3.69;82.18;98161.75;4973464;28;20054;-80
2024/01/15 00:11:44;;;;;;;9.05;2.75;;;;;;;3.69;82.46;98168.72;4955491;28;20053;-79
2024/01/15 00:14:10;;;;;;;9.57;2.60;;;;;;;3.68;82.18;98167.03;4956042;28;20051;-80
2024/01/15 00:16:36;;;;;;;11.77;2.75;;;;;;;3.66;81.92;98156.69;4973333;28;20050;-80
2024/01/15 00:19:03;;;;;;;11.80;2.00;;;;;;;3.65;82.10;98163.69;5209242;23;20090;-75
2024/01/15 00:21:30;;;;;;;6.97;1.83;;;;;;;3.65;82.06;98163.69;4972762;28;20511;-75
2024/01/15 00:23:56;;;;;;;13.40;2.47;;;;;;;3.64;81.81;98150.75;4973746;28;20049;-73
2024/01/15 00:29:00;;;;;;;12.32;2.53;;;;;;;3.60;81.27;98138.84;5155734;23;20416;-74
2024/01/15 00:31:27;;;;;;;12.90;2.17;;;;;;;3.56;81.42;98140.78;4972144;28;20089;-74
2024/01/15 00:33:55;;;;;;;8.02;1.63;;;;;;;3.55;81.08;98144.28;4972612;28;20050;-75
2024/01/15 00:36:22;;;;;;;10.93;2.60;;;;;;;3.51;81.41;98143.63;4972884;28;20095;-75
2024/01/15 00:38:49;;;;;;;10.38;2.10;;;;;;;3.49;81.14;98132.47;4972721;28;20058;-75
2024/01/15 00:41:15;;;;;;;5.82;1.77;;;;;;;3.45;80.94;98130.94;4972404;28;20146;-75
2024/01/15 00:43:42;;;;;;;11.65;2.03;;;;;;;3.41;81.14;98142.44;4955301;28;20055;-75
2024/01/15 00:46:08;;;;;;;12.23;2.10;;;;;;;3.38;81.11;98143.44;4972033;28;20400;-74
2024/01/15 00:48:35;;;;;;;8.82;2.40;;;;;;;3.36;81.13;98141.81;4972227;28;20074;-75
2024/01/15 00:51:02;;;;;;;9.65;2.05;;;;;;;3.32;81.21;98143.75;4972240;28;20054;-75
2024/01/15 00:53:28;;;;;;;10.40;2.70;;;;;;;3.31;81.09;98141.25;4972508;28;20059;-75
2024/01/15 00:55:55;;;;;;;5.95;1.80;;;;;;;3.29;81.45;98140.50;4972534;28;20078;-74
2024/01/15 00:58:22;;;;;;;10.35;2.53;;;;;;;3.25;81.30;98127.66;4972417;28;20062;-75
2024/01/15 01:00:48;;;;;;;7.78;2.40;;;;;;;3.25;81.55;98129.41;4972171;28;20130;-75
2024/01/15 01:03:15;;;;;;;10.68;1.85;;;;;;;3.21;81.26;98128.72;4971878;28;20047;-73
2024/01/15 01:05:42;;;;;;;9.93;2.00;;;;;;;3.20;81.53;98132.25;4972401;28;20055;-75
2024/01/15 01:08:08;;;;;;;5.78;2.17;;;;;;;3.19;81.22;98135.78;4972196;28;20051;-74
2024/01/15 01:10:35;;;;;;;10.40;2.22;;;;;;;3.18;81.82;98128.88;4972342;28;20053;-75
2024/01/15 01:13:01;;;;;;;8.07;2.47;;;;;;;3.17;81.44;98134.19;4971586;28;20065;-74
2024/01/15 01:15:28;;;;;;;13.07;2.70;;;;;;;3.15;81.14;98123.00;4954798;28;20145;-75
2024/01/15 01:17:54;;;;;;;13.10;3.30;;;;;;;3.14;81.21;98132.56;4971995;28;20097;-75
2024/01/15 01:20:21;;;;;;;8.63;2.28;;;;;;;3.10;81.51;98120.69;4972175;28;20058;-75
2024/01/15 01:22:47;;;;;;;11.65;3.05;;;;;;;3.10;81.14;98126.69;4971692;28;20432;-75
2024/01/15 01:25:14;;;;;;;8.82;2.97;;;;;;;3.08;81.22;98130.31;4971859;28;20129;-75
2024/01/15 01:27:40;;;;;;;4.55;2.55;;;;;;;3.06;81.74;98116.56;4971750;28;20050;-74
2024/01/15 01:30:09;;;;;;;14.60;3.28;;;;;;;3.05;81.37;98114.84;4971801;28;20058;-75
2024/01/15 01:32:36;;;;;;;9.52;3.25;;;;;;;3.05;81.60;98107.06;4953993;28;20042;-75
2024/01/15 01:35:03;;;;;;;11.23;2.88;;;;;;;3.03;81.16;98112.34;4971955;28;20050;-75
2024/01/15 01:37:29;;;;;;;10.20;3.45;;;;;;;3.03;81.21;98106.31;4971851;28;20066;-75
2024/01/15 01:39:56;;;;;;;8.57;2.35;;;;;;;3.01;81.39;98106.38;4971919;28;20235;-75
2024/01/15 01:42:22;;;;;;;13.10;2.75;;;;;;;3.00;81.67;98102.13;4971494;28;20051;-74
2024/01/15 01:44:49;;;;;;;5.75;2.22;;;;;;;3.00;81.55;98102.94;4971506;28;20054;-75
2024/01/15 01:47:15;;;;;;;12.68;2.17;;;;;;;2.98;81.59;98086.59;4971607;28;20057;-73
2024/01/15 01:49:42;;;;;;;8.63;2.30;;;;;;;2.95;81.09;98099.75;4971823;28;20059;-75
2024/01/15 01:52:10;;;;;;;9.13;2.45;;;;;;;2.94;81.29;98094.63;4971518;28;20133;-75
2024/01/15 01:54:37;;;;;;;12.60;2.38;;;;;;;2.92;81.44;98094.69;4971344;28;20093;-75
2024/01/15 01:57:05;;;;;;;10.02;2.28;;;;;;;2.92;81.27;98093.88;4971645;28;20047;-75
2024/01/15 01:59:34;;;;;;;8.07;1.92;;;;;;;2.90;81.03;98095.72;4975020;28;20407;-75
2024/01/15 02:02:03;;;;;;;13.60;2.17;;;;;;;2.88;80.84;98102.75;4975521;28;20051;-75
2024/01/15 02:04:31;;;;;;;6.40;2.00;;;;;;;2.86;81.48;98095.88;4975353;28;20054;-75
2024/01/15 02:06:59;;;;;;;9.02;2.55;;;;;;;2.86;81.52;98106.28;4975268;28;20051;-75
2024/01/15 02:09:26;;;;;;;5.18;1.92;;;;;;;2.86;81.33;98106.28;4975701;28;20415;-76
2024/01/15 02:11:52;;;;;;;8.60;2.28;;;;;;;2.86;81.85;98098.50;4975040;28;20057;-75
2024/01/15 02:14:19;;;;;;;6.45;1.52;;;;;;;2.86;81.78;98108.03;4957972;28;20053;-75
2024/01/15 02:16:46;;;;;;;7.97;2.17;;;;;;;2.88;81.81;98101.00;4975432;28;20051;-75
2024/01/15 02:19:17;;;;;;;10.10;1.80;;;;;;;2.89;81.81;98097.47;4975313;28;20069;-75
2024/01/15 02:21:43;;;;;;;11.65;1.67;;;;;;;2.92;82.59;98099.06;4974986;28;20133;-75
2024/01/15 02:24:11;;;;;;;11.55;2.35;;;;;;;2.92;82.34;98099.06;4974734;28;20054;-75
2024/01/15 02:26:38;;;;;;;8.65;1.83;;;;;;;2.93;81.83;98090.34;4974867;28;20054;-75
2024/01/15 02:29:08;;;;;;;6.47;1.58;;;;;;;2.95;82.06;98098.94;4957765;28;20106;-75
2024/01/15 02:31:35;;;;;;;7.93;1.63;;;;;;;2.97;82.25;98086.69;4974927;28;20061;-75
2024/01/15 02:34:02;;;;;;;7.43;1.95;;;;;;;2.98;81.82;98084.00;4974736;28;20129;-75
2024/01/15 02:36:29;;;;;;;9.25;1.83;;;;;;;2.99;82.01;98080.47;4974820;28;20062;-75
2024/01/15 02:38:56;;;;;;;9.45;1.80;;;;;;;3.00;82.29;98087.34;4974814;28;20050;-75
2024/01/15 02:41:22;;;;;;;11.68;1.90;;;;;;;3.01;82.00;98090.78;4974862;28;20133;-75
2024/01/15 02:43:49;;;;;;;11.93;1.67;;;;;;;3.03;82.50;98101.13;4974848;28;20054;-75
2024/01/15 02:46:16;;;;;;;9.60;2.35;;;;;;;3.04;82.40;98095.00;4974641;28;20599;-75
2024/01/15 02:48:42;;;;;;;9.95;1.90;;;;;;;3.06;82.28;98093.16;4974661;28;20480;-76
2024/01/15 02:51:09;;;;;;;10.80;1.60;;;;;;;3.06;82.33;98098.38;4974412;28;20102;-75
2024/01/15 02:53:36;;;;;;;12.23;2.45;;;;;;;3.09;82.27;98103.38;4974513;28;20046;-74
2024/01/15 02:56:03;;;;;;;10.82;1.80;;;;;;;3.10;82.26;98089.47;4974281;28;20065;-75
2024/01/15 02:58:29;;;;;;;15.60;2.22;;;;;;;3.10;81.70;98090.31;4974311;28;20491;-75
2024/01/15 03:00:55;;;;;;;10.10;2.25;;;;;;;3.11;81.90;98088.56;4974477;28;20047;-74
2024/01/15 03:03:22;;;;;;;11.27;1.90;;;;;;;3.12;81.98;98088.47;4974373;28;20054;-75
2024/01/15 03:05:49;;;;;;;12.35;2.13;;;;;;;3.14;82.25;98101.38;4974112;28;20051;-75
2024/01/15 03:08:15;;;;;;;10.57;2.13;;;;;;;3.14;81.94;98101.38;4974459;28;20049;-75
2024/01/15 03:10:42;;;;;;;6.95;1.90;;;;;;;3.16;82.09;98102.13;4973526;28;20475;-75
2024/01/15 03:13:08;;;;;;;5.05;1.95;;;;;;;3.15;81.89;98103.06;4974069;28;20684;-74
2024/01/15 03:15:34;;;;;;;12.77;2.30;;;;;;;3.17;82.24;98106.41;4974142;28;20053;-75
2024/01/15 03:18:01;;;;;;;10.38;2.03;;;;;;;3.18;82.66;98095.09;4974203;28;20082;-75
2024/01/15 03:20:27;;;;;;;14.10;1.98;;;;;;;3.21;82.42;98102.72;4974071;28;20051;-75
2024/01/15 03:22:54;;;;;;;9.73;2.40;;;;;;;3.24;82.20;98117.31;4974107;28;20058;-75
2024/01/15 03:25:20;;;;;;;8.60;2.17;;;;;;;3.25;82.26;98114.66;4974286;28;20055;-75
2024/01/15 03:27:47;;;;;;;10.13;1.88;;;;;;;3.25;81.95;98112.03;4973642;28;20055;-75
2024/01/15 03:30:13;;;;;;;11.52;1.90;;;;;;;3.28;82.42;98118.84;4974120;28;20051;-75
2024/01/15 03:32:40;;;;;;;11.55;1.85;;;;;;;3.30;82.14;98123.97;4973600;28;20050;-75
2024/01/15 03:35:07;;;;;;;5.25;1.50;;;;;;;3.32;82.39;98119.53;4973587;28;20081;-75
2024/01/15 03:37:33;;;;;;;9.75;1.90;;;;;;;3.33;82.48;98123.81;4973574;28;20138;-75
2024/01/15 03:40:00;;;;;;;11.10;2.38;;;;;;;3.34;82.42;98117.69;4973669;28;20070;-75
2024/01/15 03:42:26;;;;;;;8.80;1.67;;;;;;;3.37;82.55;98127.94;4973409;28;20050;-74
2024/01/15 03:44:53;;;;;;;15.55;2.65;;;;;;;3.38;82.19;98120.03;4973325;28;20051;-75
2024/01/15 03:47:19;;;;;;;10.98;2.28;;;;;;;3.39;81.96;98120.88;4973177;28;20141;-76
2024/01/15 03:49:46;;;;;;;10.73;2.40;;;;;;;3.39;82.05;98108.72;4973276;28;20106;-75
2024/01/15 03:52:12;;;;;;;11.32;2.08;;;;;;;3.41;82.07;98113.84;4973335;28;20047;-75
2024/01/15 03:54:39;;;;;;;7.60;2.00;;;;;;;3.40;81.71;98112.13;4973372;28;20069;-75
2024/01/15 03:57:05;;;;;;;11.30;1.77;;;;;;;3.40;81.61;98106.94;4973176;28;20047;-74
2024/01/15 03:59:32;;;;;;;14.63;3.05;;;;;;;3.41;81.47;98107.78;4973118;28;20187;-76
2024/01/15 04:01:58;;;;;;;7.80;2.53;;;;;;;3.39;81.33;98095.72;4972942;28;20145;-75
2024/01/15 04:04:24;;;;;;;8.45;1.92;;;;;;;3.39;81.50;98094.84;4972800;28;20061;-75
2024/01/15 04:06:51;;;;;;;12.15;2.08;;;;;;;3.37;81.52;98081.09;4972942;28;20086;-74
2024/01/15 04:09:18;;;;;;;7.50;1.92;;;;;;;3.35;81.30;98089.00;4973153;28;20054;-75
2024/01/15 04:11:44;;;;;;;11.95;2.28;;;;;;;3.34;81.52;98095.13;4972774;28;20141;-74
2024/01/15 04:14:11;;;;;;;10.77;2.55;;;;;;;3.32;81.54;98093.53;4972851;28;20534;-75
2024/01/15 04:16:37;;;;;;;12.35;2.00;;;;;;;3.31;81.79;98090.06;4972841;28;20562;-75
2024/01/15 04:19:04;;;;;;;11.57;2.47;;;;;;;3.31;81.40;98094.44;4972480;28;20055;-75
2024/01/15 04:21:31;;;;;;;8.60;2.05;;;;;;;3.30;81.70;98097.97;4972291;28;20484;-75
2024/01/15 04:23:58;;;;;;;8.98;1.92;;;;;;;3.29;81.48;98089.31;4972750;28;20051;-75
2024/01/15 04:26:24;;;;;;;8.73;2.22;;;;;;;3.28;81.90;98086.81;4972527;28;20494;-74
2024/01/15 04:28:51;;;;;;;13.60;2.30;;;;;;;3.26;81.52;98085.09;4972264;28;20554;-75
2024/01/15 04:31:23;;;;;;;9.80;2.20;;;;;;;3.25;81.23;98082.59;4972353;28;20555;-75
2024/01/15 04:33:49;;;;;;;6.85;1.63;;;;;;;3.26;81.64;98079.09;4972714;28;20054;-74
2024/01/15 04:36:16;;;;;;;9.60;2.03;;;;;;;3.25;81.91;98073.03;4972444;28;20456;-75
2024/01/15 04:38:43;;;;;;;7.65;1.45;;;;;;;3.24;81.54;98073.97;4955017;28;20058;-74
2024/01/15 04:41:15;;;;;;;9.40;1.73;;;;;;;3.22;81.14;98068.00;4971946;28;20062;-74
2024/01/15 04:43:42;;;;;;;6.72;1.95;;;;;;;3.22;81.50;98072.38;4972172;28;20054;-74
2024/01/15 04:46:08;;;;;;;8.27;1.98;;;;;;;3.20;81.40;98069.00;4972383;28;20109;-74
2024/01/15 04:48:35;;;;;;;9.13;1.98;;;;;;;3.19;81.74;98060.38;4972087;28;20138;-74
2024/01/15 04:51:04;;;;;;;10.20;2.25;;;;;;;3.16;81.45;98063.13;4972085;28;20487;-75
2024/01/15 04:53:31;;;;;;;7.70;1.77;;;;;;;3.16;81.30;98068.34;4972091;28;20509;-75
2024/01/15 04:55:58;;;;;;;10.93;1.73;;;;;;;3.15;81.46;98056.28;4972177;28;20559;-75
2024/01/15 04:58:26;;;;;;;7.35;1.70;;;;;;;3.14;81.84;98054.56;4972147;28;20093;-74
2024/01/15 05:00:54;;;;;;;6.88;1.50;;;;;;;3.15;82.37;98047.63;4971886;28;20090;-75
2024/01/15 05:03:21;;;;;;;6.35;1.45;;;;;;;3.14;82.27;98046.75;4972136;28;20049;-75
2024/01/15 05:05:47;;;;;;;7.97;1.20;;;;;;;3.14;82.44;98044.16;4972297;28;20054;-74
2024/01/15 05:08:14;;;;;;;9.93;2.15;;;;;;;3.15;81.88;98040.66;4971736;28;20053;-75
2024/01/15 05:10:40;;;;;;;6.90;1.80;;;;;;;3.15;82.03;98051.06;4971727;28;20126;-75
2024/01/15 05:13:07;;;;;;;3.38;1.27;;;;;;;3.14;81.69;98049.38;4972214;28;20267;-74
2024/01/15 05:15:33;;;;;;;8.65;1.20;;;;;;;3.15;81.99;98055.41;4972051;28;20055;-75
2024/01/15 05:18:00;;;;;;;5.47;1.50;;;;;;;3.14;81.91;98054.56;4971932;28;20069;-75
2024/01/15 05:20:26;;;;;;;4.28;1.35;;;;;;;3.14;81.99;98049.38;4971529;28;20730;-75
2024/01/15 05:22:53;;;;;;;4.10;1.73;;;;;;;3.15;82.16;98055.41;4971622;28;20055;-75
2024/01/15 05:25:19;;;;;;;4.82;1.20;;;;;;;3.15;82.51;98048.47;4971853;28;20055;-73
2024/01/15 05:27:49;;;;;;;5.30;1.58;;;;;;;3.16;82.02;98046.69;4971516;28;20781;-75
2024/01/15 05:30:16;;;;;;;4.43;1.45;;;;;;;3.17;82.08;98041.41;4954492;28;20460;-75
2024/01/15 05:32:43;;;;;;;5.47;1.70;;;;;;;3.17;82.13;98038.00;4971968;28;20077;-74
2024/01/15 05:35:10;;;;;;;5.47;1.80;;;;;;;3.17;81.86;98033.59;4971780;28;20055;-75
2024/01/15 05:37:36;;;;;;;9.40;1.60;;;;;;;3.18;82.08;98037.88;4971594;28;20114;-74
2024/01/15 05:40:04;;;;;;;7.50;2.05;;;;;;;3.17;81.87;98033.59;4971678;28;20476;-75
2024/01/15 05:42:31;;;;;;;9.25;2.50;;;;;;;3.18;81.60;98042.25;4971250;28;20507;-74
2024/01/15 05:44:59;;;;;;;5.70;2.10;;;;;;;3.17;81.50;98053.59;4970913;28;20047;-75
2024/01/15 05:47:26;;;;;;;6.68;1.98;;;;;;;3.15;81.77;98051.06;4971711;28;20453;-75
2024/01/15 05:49:54;;;;;;;6.00;2.13;;;;;;;3.13;81.67;98056.34;4971888;28;20055;-75
2024/01/15 05:52:21;;;;;;;4.93;1.63;;;;;;;3.13;81.83;98055.50;4971761;28;20047;-75
2024/01/15 05:54:49;;;;;;;5.30;1.63;;;;;;;3.10;81.80;98053.09;4954339;28;20057;-75
2024/01/15 05:57:16;;;;;;;5.07;1.80;;;;;;;3.10;81.60;98046.09;4972190;28;20086;-75
2024/01/15 05:59:44;;;;;;;7.40;2.03;;;;;;;3.09;81.68;98038.38;4972246;28;20059;-74
2024/01/15 06:02:11;;;;;;;6.90;2.10;;;;;;;3.09;82.06;98051.38;4972049;28;20051;-75
2024/01/15 06:04:37;;;;;;;8.70;2.20;;;;;;;3.10;81.99;98048.69;4954565;28;20043;-72
2024/01/15 06:07:04;;;;;;;13.77;2.20;;;;;;;3.09;82.05;98048.78;4971950;28;20435;-72
2024/01/15 06:09:31;;;;;;;8.07;1.98;;;;;;;3.10;82.15;98045.28;4972244;28;20133;-72
2024/01/15 06:11:58;;;;;;;6.90;1.85;;;;;;;3.10;82.12;98046.09;4972195;28;20050;-70
2024/01/15 06:14:24;;;;;;;12.30;2.47;;;;;;;3.10;82.02;98040.09;4971236;28;20069;-72
2024/01/15 06:19:49;;;;;;;9.82;2.10;;;;;;;3.10;82.35;98038.31;5161500;23;20170;-81
2024/01/15 06:22:15;;;;;;;10.27;2.05;;;;;;;3.11;82.01;98049.56;4971383;28;20051;-83
2024/01/15 06:24:42;;;;;;;12.25;3.03;;;;;;;3.10;82.18;98046.09;4971697;28;20057;-83
2024/01/15 06:27:09;;;;;;;9.52;2.15;;;;;;;3.11;82.15;98044.34;4971506;28;20178;-81
2024/01/15 06:29:38;;;;;;;10.82;2.20;;;;;;;3.10;82.25;98059.09;4971274;28;20085;-80
2024/01/15 06:32:04;;;;;;;9.02;2.03;;;;;;;3.13;82.58;98055.50;4970541;28;20423;-82
2024/01/15 06:34:31;;;;;;;9.13;2.10;;;;;;;3.13;82.32;98047.69;4971302;28;20405;-81
2024/01/15 06:36:58;;;;;;;8.63;2.80;;;;;;;3.15;82.34;98050.22;4971300;28;20050;-82
2024/01/15 06:39:24;;;;;;;10.20;3.20;;;;;;;3.16;82.59;98054.50;4971224;28;20057;-81
2024/01/15 06:41:51;;;;;;;11.65;2.17;;;;;;;3.18;82.29;98056.09;4970890;28;20062;-81
2024/01/15 06:44:17;;;;;;;11.00;2.42;;;;;;;3.18;82.09;98066.47;4972244;28;20061;-81
2024/01/15 06:46:44;;;;;;;7.22;2.42;;;;;;;3.20;82.39;98066.41;4974699;28;20050;-83
2024/01/15 06:49:11;;;;;;;7.43;1.70;;;;;;;3.20;82.60;98066.41;4974830;28;20751;-83
2024/01/15 06:51:38;;;;;;;10.75;1.90;;;;;;;3.20;82.16;98064.66;4974374;28;20050;-83
2024/01/15 06:54:05;;;;;;;5.78;1.73;;;;;;;3.20;82.49;98058.59;4974454;28;20058;-82
2024/01/15 06:56:32;;;;;;;3.88;1.67;;;;;;;3.21;82.22;98070.72;4974686;28;20393;-82
2024/01/15 06:58:58;;;;;;;5.10;1.85;;;;;;;3.23;82.44;98068.84;4974545;28;20077;-82
2024/01/15 07:01:25;;;;;;;7.72;1.58;;;;;;;3.22;81.92;98060.19;4974168;28;20055;-83
2024/01/15 07:03:51;;;;;;;6.57;1.77;;;;;;;3.23;82.03;98061.91;4974141;28;20058;-79
2024/01/15 07:06:18;;;;;;;4.28;1.35;;;;;;;3.23;81.86;98059.28;4974719;28;20059;-82
2024/01/15 07:08:45;;;;;;;4.90;1.77;;;;;;;3.22;81.92;98056.78;4974424;28;20051;-83
2024/01/15 07:11:12;;;;;;;6.68;1.70;;;;;;;3.23;81.96;98059.28;4974098;28;20110;-79
2024/01/15 07:13:38;;;;;;;4.03;1.67;;;;;;;3.24;81.91;98070.50;4973791;28;20077;-83
2024/01/15 07:16:05;;;;;;;4.88;1.67;;;;;;;3.25;82.03;98070.44;4974198;28;20125;-83
2024/01/15 07:18:31;;;;;;;6.68;2.03;;;;;;;3.25;82.45;98067.84;4974038;28;20449;-80
2024/01/15 07:20:59;;;;;;;7.30;2.50;;;;;;;3.28;82.33;98068.59;4972993;28;20058;-81
2024/01/15 07:23:25;;;;;;;4.93;1.95;;;;;;;3.27;82.16;98072.97;4972553;28;20046;-79
2024/01/15 07:25:55;;;;;;;4.78;1.52;;;;;;;3.28;81.72;98072.03;4972547;28;20047;-82
2024/01/15 07:28:22;;;;;;;6.05;1.88;;;;;;;3.28;81.52;98071.22;4972779;28;20117;-82
2024/01/15 07:30:49;;;;;;;5.60;1.90;;;;;;;3.25;81.33;98065.25;4972833;28;20587;-81
2024/01/15 07:33:16;;;;;;;4.10;1.63;;;;;;;3.23;81.53;98072.28;4972797;28;20090;-83
2024/01/15 07:35:42;;;;;;;4.72;2.35;;;;;;;3.22;81.43;98072.38;4972182;28;20124;-80
2024/01/15 07:38:11;;;;;;;10.70;2.10;;;;;;;3.21;81.77;98070.72;4972659;28;20061;-78
2024/01/15 07:40:38;;;;;;;7.85;2.53;;;;;;;3.18;81.55;98066.47;4955585;28;20142;-80
2024/01/15 07:43:04;;;;;;;5.47;2.47;;;;;;;3.16;81.66;98065.75;4955054;28;20053;-78
2024/01/15 07:45:31;;;;;;;6.97;2.13;;;;;;;3.15;81.83;98060.63;4955832;28;20079;-79
2024/01/15 07:47:57;;;;;;;6.55;1.98;;;;;;;3.14;82.17;98059.75;4972139;28;20042;-80
2024/01/15 07:50:24;;;;;;;6.78;1.77;;;;;;;3.13;82.05;98074.53;4955547;28;20047;-79
2024/01/15 07:52:51;;;;;;;5.30;2.25;;;;;;;3.14;81.94;98067.56;4972386;28;20063;-80
2024/01/15 07:55:17;;;;;;;6.50;1.67;;;;;;;3.12;82.21;98080.69;4972369;28;20145;-80
2024/01/15 07:57:44;;;;;;;3.13;1.75;;;;;;;3.14;82.26;98080.56;4971769;28;20133;-79
2024/01/15 08:00:19;;;;;;;3.90;2.00;;;;;;;3.13;82.40;98074.53;4972785;28;20451;-80
2024/01/15 08:02:45;;;;;;;3.13;1.90;;;;;;;3.15;82.26;98077.06;4972273;28;20046;-81
2024/01/15 08:05:12;;;;;;;2.60;1.95;;;;;;;3.14;82.36;98072.75;4972525;28;20134;-78
2024/01/15 08:07:38;;;;;;;3.22;1.80;;;;;;;3.14;81.84;98085.75;4954695;28;20083;-79
2024/01/15 08:10:05;;;;;;;2.85;2.00;;;;;;;3.12;81.75;98075.47;4972197;28;20571;-80
2024/01/15 08:12:31;;;;;;;2.70;1.50;;;;;;;3.09;81.31;98077.38;4972084;28;20483;-81
2024/01/15 08:14:58;;;;;;;3.05;1.70;;;;;;;3.05;81.33;98075.88;4972354;28;20057;-80
2024/01/15 08:17:28;;;;;;;2.42;1.40;;;;;;;3.02;81.23;98063.06;4970982;28;20050;-79
2024/01/15 08:19:54;;;;;;;5.93;1.60;;;;;;;2.99;81.61;98071.84;4929867;28;1176552;-80
2024/01/15 08:22:21;;;;;;;2.40;1.80;;;;;;;2.96;82.23;98067.63;4973085;28;20070;-81
2024/01/15 08:24:48;;;;;;;2.65;1.92;;;;;;;2.94;81.87;98072.09;4972822;28;20146;-81
2024/01/15 08:27:14;;;;;;;5.45;2.15;;;;;;;2.94;82.02;98073.84;4972838;28;20047;-82
2024/01/15 08:29:41;;;;;;;5.15;2.13;;;;;;;2.91;82.24;98064.44;4972779;28;20058;-79
2024/01/15 08:32:07;;;;;;;3.70;2.00;;;;;;;2.91;82.30;98069.63;4972741;28;20547;-82
2024/01/15 08:34:34;;;;;;;6.68;2.13;;;;;;;2.90;81.93;98067.13;4955500;28;20086;-80
2024/01/15 08:37:02;;;;;;;4.78;2.40;;;;;;;2.89;82.17;98070.66;4972821;28;20059;-80
2024/01/15 08:39:29;;;;;;;6.95;2.30;;;;;;;2.89;82.31;98057.66;4972145;28;20179;-80
2024/01/15 08:41:55;;;;;;;5.40;3.05;;;;;;;2.88;81.94;98071.56;4972078;28;20047;-80
2024/01/15 08:44:21;;;;;;;8.60;2.88;;;;;;;2.87;82.40;98057.72;4972343;28;20428;-80
2024/01/15 08:46:48;;;;;;;6.70;3.22;;;;;;;2.86;82.42;98066.44;4955486;28;20134;-81
2024/01/15 08:49:14;;;;;;;5.93;3.28;;;;;;;2.86;82.46;98074.25;4972219;28;20042;-81
2024/01/15 08:51:41;;;;;;;7.57;3.55;;;;;;;2.84;82.28;98057.91;4972654;28;20042;-81
2024/01/15 08:54:08;;;;;;;7.80;3.40;;;;;;;2.84;82.55;98070.91;4972198;28;20050;-80
2024/01/15 08:56:35;;;;;;;6.60;3.35;;;;;;;2.85;82.85;98069.97;4972584;28;20055;-80
2024/01/15 08:59:01;;;;;;;11.57;4.10;;;;;;;2.86;82.57;98066.44;4972197;28;20146;-80
2024/01/15 09:01:27;;;;;;;6.63;3.67;;;;;;;2.86;83.29;98067.31;4972069;28;20055;-80
2024/01/15 09:03:54;;;;;;;11.05;3.70;;;;;;;2.90;82.99;98064.53;4972078;28;20051;-80
2024/01/15 09:06:21;;;;;;;11.55;4.40;;;;;;;2.92;83.04;98066.13;4972502;28;20126;-77
2024/01/15 09:08:48;;;;;;;7.63;3.42;;;;;;;2.95;83.08;98062.53;4971809;28;20089;-82
2024/01/15 09:11:14;;;;;;;10.02;3.60;;;;;;;2.98;83.17;98060.59;4972217;28;20105;-79
2024/01/15 09:13:41;;;;;;;9.32;3.78;;;;;;;2.98;82.52;98071.00;4972295;28;20080;-79
2024/01/15 09:16:07;;;;;;;9.35;4.00;;;;;;;3.02;82.61;98068.25;4971918;28;20133;-78
2024/01/15 09:18:34;;;;;;;10.05;3.55;;;;;;;3.03;82.59;98069.91;4972184;28;20063;-80
2024/01/15 09:21:03;;;;;;;8.30;3.17;;;;;;;3.03;83.18;98072.53;4971946;28;20121;-80
2024/01/15 09:23:29;;;;;;;10.35;3.45;;;;;;;3.05;83.05;98071.50;4972370;28;20050;-78
2024/01/15 09:25:55;;;;;;;11.82;3.50;;;;;;;3.08;82.92;98078.31;4971838;28;20047;-78
2024/01/15 09:28:22;;;;;;;9.02;3.28;;;;;;;3.09;82.57;98080.81;4971994;28;20047;-79
2024/01/15 09:30:49;;;;;;;9.85;3.20;;;;;;;3.11;82.50;98065.16;4972050;28;20137;-81
2024/01/15 09:33:15;;;;;;;10.82;3.47;;;;;;;3.13;83.01;98063.28;4954658;28;20097;-81
2024/01/15 09:35:42;;;;;;;9.73;3.22;;;;;;;3.14;82.96;98059.75;4971602;28;20101;-79
2024/01/15 09:38:09;;;;;;;9.50;3.00;;;;;;;3.16;82.74;98051.88;4972157;28;20078;-78
2024/01/15 09:40:38;;;;;;;12.45;2.97;;;;;;;3.16;82.54;98051.88;4971957;28;20133;-79
2024/01/15 09:43:05;;;;;;;6.15;2.70;;;;;;;3.19;82.53;98051.72;4954765;28;20134;-79
2024/01/15 09:45:32;;;;;;;8.43;2.90;;;;;;;3.21;82.90;98060.31;4972213;28;20384;-77
2024/01/15 09:47:58;;;;;;;7.88;3.22;;;;;;;3.22;82.39;98060.19;4971818;28;20051;-78
2024/01/15 09:50:25;;;;;;;12.43;2.72;;;;;;;3.24;82.75;98053.16;4971713;28;20741;-79
2024/01/15 09:52:52;;;;;;;9.32;2.97;;;;;;;3.25;82.61;98057.44;4971867;28;20224;-78
2024/01/15 09:55:19;;;;;;;4.95;2.63;;;;;;;3.28;82.55;98055.59;4971743;28;20480;-78
2024/01/15 09:57:48;;;;;;;7.50;2.42;;;;;;;3.28;82.49;98056.44;4971511;28;20047;-79
2024/01/15 10:00:17;;;;;;;7.32;1.92;;;;;;;3.30;82.27;98061.56;4971820;28;20054;-78
2024/01/15 10:02:44;;;;;;;7.63;2.28;;;;;;;3.32;82.36;98055.34;4971363;28;20082;-78
2024/01/15 10:05:11;;;;;;;9.13;2.17;;;;;;;3.33;82.54;98059.59;4972005;28;20061;-78
2024/01/15 10:07:39;;;;;;;5.07;1.98;;;;;;;3.34;82.73;98055.25;4971615;28;20047;-78
2024/01/15 10:10:07;;;;;;;10.98;2.45;;;;;;;3.33;82.18;98054.41;4972082;28;20059;-79
2024/01/15 10:12:34;;;;;;;8.43;2.13;;;;;;;3.36;82.14;98050.78;4971414;28;20069;-79
2024/01/15 10:15:01;;;;;;;11.93;2.25;;;;;;;3.34;81.89;98045.72;4954658;28;20062;-78
2024/01/15 10:17:28;;;;;;;5.88;2.47;;;;;;;3.36;82.19;98058.59;4971786;28;20552;-78
2024/01/15 10:19:55;;;;;;;8.85;2.30;;;;;;;3.37;82.47;98055.09;4956886;28;20133;-78
2024/01/15 10:22:22;;;;;;;6.82;2.45;;;;;;;3.41;83.16;98047.94;4975001;28;20105;-79
2024/01/15 10:24:48;;;;;;;6.22;2.30;;;;;;;3.44;83.04;98042.59;4975428;28;20153;-79
2024/01/15 10:27:15;;;;;;;6.47;1.90;;;;;;;3.48;83.10;98044.09;4975116;28;20500;-77
2024/01/15 10:29:42;;;;;;;9.98;2.13;;;;;;;3.52;83.02;98050.81;4975189;28;20080;-79
2024/01/15 10:32:09;;;;;;;8.13;2.35;;;;;;;3.57;83.25;98042.72;4974907;28;20054;-79
2024/01/15 10:34:40;;;;;;;5.05;1.90;;;;;;;3.60;82.72;98047.78;4958025;28;20054;-79
2024/01/15 10:37:09;;;;;;;7.45;1.95;;;;;;;3.64;82.89;98047.53;4957976;28;20562;-78
2024/01/15 10:39:36;;;;;;;7.85;2.40;;;;;;;3.67;82.26;98043.06;4975198;28;20174;-78
2024/01/15 10:42:04;;;;;;;8.82;2.25;;;;;;;3.68;82.02;98050.78;4974826;28;20050;-82
2024/01/15 10:44:30;;;;;;;7.63;2.30;;;;;;;3.69;81.94;98055.06;4958068;28;20137;-77
2024/01/15 10:46:57;;;;;;;5.15;2.15;;;;;;;3.69;81.50;98054.22;4974484;28;20065;-78
2024/01/15 10:49:26;;;;;;;5.43;2.38;;;;;;;3.70;81.65;98045.50;4975057;28;20095;-82
2024/01/15 10:51:58;;;;;;;3.50;1.90;;;;;;;3.71;81.54;98049.78;4958502;28;20121;-79
2024/01/15 10:54:27;;;;;;;5.80;2.03;;;;;;;3.69;81.38;98046.41;4974942;28;20051;-78
2024/01/15 10:56:56;;;;;;;4.68;1.50;;;;;;;3.68;81.60;98042.97;4974471;28;20064;-79
2024/01/15 10:59:22;;;;;;;9.57;2.05;;;;;;;3.69;81.66;98039.44;4957745;28;20408;-78
2024/01/15 11:01:53;;;;;;;4.70;2.05;;;;;;;3.69;81.74;98043.78;4974658;28;20244;-78
2024/01/15 11:04:21;;;;;;;7.15;2.28;;;;;;;3.71;81.89;98040.22;4974798;28;20061;-79
2024/01/15 11:06:53;;;;;;;10.43;2.55;;;;;;;3.70;81.57;98046.31;4974438;28;20057;-79
2024/01/15 11:09:20;;;;;;;8.90;2.22;;;;;;;3.74;82.02;98041.81;4974348;28;20059;-82
2024/01/15 11:11:48;;;;;;;9.57;2.72;;;;;;;3.74;81.66;98041.81;4974634;28;20472;-78
2024/01/15 11:14:34;;;;;;;6.70;2.45;;;;;;;3.71;79.22;98029.81;4974695;28;20054;-79
2024/01/15 11:17:01;;;;;;;7.05;2.10;;;;;;;3.73;80.94;98024.50;4974315;28;20389;-78
2024/01/15 11:19:42;;;;;;;9.15;2.85;;;;;;;3.69;79.05;98028.19;4957296;28;20475;-79
2024/01/15 11:22:29;;;;;;;9.75;2.40;;;;;;;3.68;79.53;98034.31;4974312;28;20059;-78
2024/01/15 11:25:18;;;;;;;7.05;2.60;;;;;;;3.68;79.54;98027.38;4974243;28;20057;-78
2024/01/15 11:27:55;;;;;;;6.93;2.70;;;;;;;3.72;81.06;98033.22;4956755;28;20086;-79
2024/01/15 11:30:25;;;;;;;8.05;2.70;;;;;;;3.70;80.19;98041.13;4973190;28;20062;-76
2024/01/15 11:32:52;;;;;;;6.72;2.50;;;;;;;3.70;81.34;98033.31;4956838;28;20059;-78
2024/01/15 11:35:19;;;;;;;6.50;2.33;;;;;;;3.71;81.46;98035.00;4957002;28;20046;-78
2024/01/15 11:37:52;;;;;;;7.10;2.80;;;;;;;3.71;80.72;98034.16;4973860;28;20050;-78
2024/01/15 11:40:20;;;;;;;6.03;2.38;;;;;;;3.74;81.85;98027.00;4949801;28;20046;-80
2024/01/15 11:42:49;;;;;;;7.72;2.67;;;;;;;3.75;81.62;98031.31;4973124;28;20050;-80
2024/01/15 11:45:20;;;;;;;8.10;2.50;;;;;;;3.76;80.88;98035.59;4973710;28;20054;-78